createdAt,value
2023-03-17T00:00:10.360Z,8.40
2023-03-17T00:00:52.372Z,8.70
2023-03-17T00:01:34.575Z,8.20
2023-03-17T00:02:16.867Z,8.80
2023-03-17T00:02:59.943Z,8.70
2023-03-17T00:03:45.749Z,8.40
2023-03-17T00:04:27.869Z,8.50
2023-03-17T00:05:26.452Z,8.80
2023-03-17T00:06:27.796Z,8.60
2023-03-17T00:07:14.852Z,8.30
2023-03-17T00:08:02.303Z,8.70
2023-03-17T00:08:48.449Z,8.90
2023-03-17T00:09:30.441Z,8.50
2023-03-17T00:10:17.792Z,9.00
2023-03-17T00:10:59.951Z,8.30
2023-03-17T00:11:42.588Z,9.40
2023-03-17T00:12:24.887Z,8.50
2023-03-17T00:13:07.031Z,8.50
2023-03-17T00:13:49.085Z,8.70
2023-03-17T00:14:31.087Z,8.50
2023-03-17T00:15:14.989Z,9.10
2023-03-17T00:16:01.685Z,8.40
2023-03-17T00:16:50.501Z,8.70
2023-03-17T00:17:32.948Z,8.90
2023-03-17T00:18:18.270Z,8.50
2023-03-17T00:19:00.443Z,8.70
2023-03-17T00:19:42.739Z,8.60
2023-03-17T00:20:31.048Z,8.60
2023-03-17T00:21:15.098Z,8.50
2023-03-17T00:21:58.940Z,8.80
2023-03-17T00:22:41.069Z,8.50
2023-03-17T00:23:24.625Z,8.40
2023-03-17T00:24:10.520Z,8.60
2023-03-17T00:24:52.384Z,8.40
2023-03-17T00:25:35.172Z,8.70
2023-03-17T00:26:17.635Z,8.70
2023-03-17T00:26:59.761Z,8.60
2023-03-17T00:27:41.568Z,8.60
2023-03-17T00:28:27.837Z,8.40
2023-03-17T00:29:09.924Z,9.20
2023-03-17T00:29:51.806Z,8.80
2023-03-17T00:30:33.662Z,8.90
2023-03-17T00:31:18.871Z,8.60
2023-03-17T00:32:00.774Z,6.40
2023-03-17T00:32:45.310Z,8.70
2023-03-17T00:33:33.386Z,8.60
2023-03-17T00:34:20.862Z,8.10
2023-03-17T00:35:06.182Z,8.80
2023-03-17T00:35:48.416Z,8.50
2023-03-17T00:36:36.539Z,8.50
2023-03-17T00:37:18.479Z,8.20
2023-03-17T00:38:00.753Z,8.30
2023-03-17T00:38:42.831Z,8.40
2023-03-17T00:39:25.751Z,8.30
2023-03-17T00:40:16.912Z,8.70
2023-03-17T00:40:58.795Z,8.20
2023-03-17T00:41:41.766Z,8.40
2023-03-17T00:42:23.784Z,7.90
2023-03-17T00:43:05.839Z,8.20
2023-03-17T00:43:48.070Z,8.10
2023-03-17T00:44:30.198Z,8.00
2023-03-17T00:45:12.744Z,8.00
2023-03-17T00:45:55.157Z,8.40
2023-03-17T00:46:38.605Z,8.50
2023-03-17T00:47:20.752Z,8.50
2023-03-17T00:48:03.400Z,8.40
2023-03-17T00:48:45.975Z,8.20
2023-03-17T00:49:28.865Z,7.80
2023-03-17T00:50:19.843Z,7.70
2023-03-17T00:51:01.816Z,7.90
2023-03-17T00:51:45.887Z,8.00
2023-03-17T00:52:27.794Z,8.40
2023-03-17T00:53:14.963Z,8.10
2023-03-17T00:53:57.118Z,8.80
2023-03-17T00:54:38.936Z,7.60
2023-03-17T00:55:21.706Z,8.00
2023-03-17T00:56:03.864Z,8.30
2023-03-17T00:56:48.017Z,8.00
2023-03-17T00:57:29.975Z,8.20
2023-03-17T00:58:30.144Z,7.60
2023-03-17T00:59:26.347Z,7.90
2023-03-17T01:00:21.006Z,7.90
2023-03-17T01:01:02.950Z,8.30
2023-03-17T01:01:44.942Z,8.10
2023-03-17T01:02:26.892Z,7.90
2023-03-17T01:03:11.836Z,8.20
2023-03-17T01:03:53.918Z,8.10
2023-03-17T01:04:36.043Z,8.10
2023-03-17T01:05:18.413Z,8.20
2023-03-17T01:06:01.831Z,8.20
2023-03-17T01:06:43.931Z,7.90
2023-03-17T01:07:25.848Z,8.50
2023-03-17T01:08:09.171Z,8.20
2023-03-17T01:08:51.179Z,8.10
2023-03-17T01:09:33.965Z,7.90
2023-03-17T01:10:18.866Z,7.90
2023-03-17T01:11:01.974Z,7.80
2023-03-17T01:11:44.403Z,7.90
2023-03-17T01:12:27.714Z,8.20
2023-03-17T01:13:12.758Z,8.20
2023-03-17T01:13:56.685Z,8.40
2023-03-17T01:14:38.895Z,8.10
2023-03-17T01:15:24.764Z,7.90
2023-03-17T01:16:10.312Z,7.70
2023-03-17T01:16:55.574Z,8.30
2023-03-17T01:17:38.096Z,8.30
2023-03-17T01:18:24.993Z,8.30
2023-03-17T01:19:06.902Z,8.30
2023-03-17T01:19:48.920Z,7.90
2023-03-17T01:20:32.998Z,8.30
2023-03-17T01:21:15.394Z,7.80
2023-03-17T01:22:00.427Z,7.80
2023-03-17T01:22:43.048Z,8.20
2023-03-17T01:23:24.824Z,7.70
2023-03-17T01:24:08.241Z,7.90
2023-03-17T01:24:50.070Z,8.10
2023-03-17T01:25:35.305Z,8.10
2023-03-17T01:26:17.375Z,7.50
2023-03-17T01:26:59.392Z,7.70
2023-03-17T01:27:42.255Z,7.80
2023-03-17T01:28:24.516Z,9.30
2023-03-17T01:29:08.001Z,7.80
2023-03-17T01:29:53.584Z,8.00
2023-03-17T01:30:38.554Z,7.80
2023-03-17T01:31:20.768Z,7.90
2023-03-17T01:32:05.199Z,7.90
2023-03-17T01:32:47.527Z,7.70
2023-03-17T01:33:29.603Z,7.50
2023-03-17T01:34:11.641Z,7.90
2023-03-17T01:34:53.465Z,8.10
2023-03-17T01:35:38.374Z,8.00
2023-03-17T01:36:21.615Z,8.50
2023-03-17T01:37:03.361Z,8.10
2023-03-17T01:37:46.620Z,7.90
2023-03-17T01:38:28.432Z,8.10
2023-03-17T01:39:10.259Z,7.70
2023-03-17T01:39:52.616Z,7.60
2023-03-17T01:40:37.245Z,8.00
2023-03-17T01:41:21.185Z,7.80
2023-03-17T01:42:04.185Z,7.70
2023-03-17T01:43:09.400Z,7.70
2023-03-17T01:43:51.356Z,7.90
2023-03-17T01:44:33.499Z,7.80
2023-03-17T01:45:52.053Z,7.80
2023-03-17T01:46:36.343Z,8.00
2023-03-17T01:47:18.901Z,7.90
2023-03-17T01:48:00.676Z,7.90
2023-03-17T01:48:47.337Z,8.10
2023-03-17T01:49:33.079Z,7.60
2023-03-17T01:50:17.125Z,7.80
2023-03-17T01:50:59.936Z,7.90
2023-03-17T01:51:55.707Z,7.90
2023-03-17T01:52:42.309Z,7.90
2023-03-17T01:53:25.459Z,7.70
2023-03-17T01:54:11.079Z,7.50
2023-03-17T01:54:56.315Z,7.50
2023-03-17T01:55:38.653Z,7.90
2023-03-17T01:56:20.677Z,7.30
2023-03-17T01:57:28.554Z,7.50
2023-03-17T01:58:10.447Z,8.10
2023-03-17T01:58:54.781Z,7.70
2023-03-17T01:59:43.675Z,7.80
2023-03-17T02:00:26.614Z,8.80
2023-03-17T02:01:08.633Z,7.60
2023-03-17T02:01:54.506Z,7.50
2023-03-17T02:02:39.230Z,7.60
2023-03-17T02:03:21.370Z,7.70
2023-03-17T02:04:04.478Z,7.90
2023-03-17T02:04:46.459Z,7.50
2023-03-17T02:05:31.347Z,8.10
2023-03-17T02:06:13.365Z,7.70
2023-03-17T02:06:58.805Z,7.70
2023-03-17T02:07:41.623Z,7.50
2023-03-17T02:08:23.432Z,8.00
2023-03-17T02:09:05.455Z,7.60
2023-03-17T02:09:50.375Z,7.50
2023-03-17T02:10:32.536Z,8.30
2023-03-17T02:11:17.621Z,7.50
2023-03-17T02:12:01.511Z,7.70
2023-03-17T02:12:45.957Z,8.00
2023-03-17T02:13:28.415Z,7.50
2023-03-17T02:14:12.310Z,7.70
2023-03-17T02:14:54.479Z,7.40
2023-03-17T02:15:45.058Z,7.70
2023-03-17T02:16:28.134Z,7.90
2023-03-17T02:17:10.293Z,7.80
2023-03-17T02:17:52.605Z,7.80
2023-03-17T02:18:34.785Z,7.50
2023-03-17T02:19:16.791Z,7.30
2023-03-17T02:20:14.587Z,7.70
2023-03-17T02:21:31.390Z,7.50
2023-03-17T02:22:13.761Z,7.60
2023-03-17T02:22:57.345Z,7.30
2023-03-17T02:23:39.416Z,7.60
2023-03-17T02:24:43.312Z,7.50
2023-03-17T02:25:28.498Z,7.60
2023-03-17T02:26:11.731Z,7.60
2023-03-17T02:26:55.685Z,7.70
2023-03-17T02:27:42.385Z,7.70
2023-03-17T02:28:29.983Z,7.30
2023-03-17T02:29:12.789Z,7.40
2023-03-17T02:29:54.535Z,7.70
2023-03-17T02:30:37.577Z,7.40
2023-03-17T02:31:20.723Z,7.40
2023-03-17T02:32:03.069Z,7.50
2023-03-17T02:32:45.146Z,7.60
2023-03-17T02:33:27.736Z,7.30
2023-03-17T02:34:09.512Z,7.70
2023-03-17T02:34:52.132Z,7.20
2023-03-17T02:35:33.998Z,7.50
2023-03-17T02:36:18.627Z,7.30
2023-03-17T02:37:02.789Z,7.20
2023-03-17T02:37:46.124Z,7.70
2023-03-17T02:38:28.064Z,7.40
2023-03-17T02:39:10.198Z,7.50
2023-03-17T02:39:52.352Z,7.60
2023-03-17T02:40:34.277Z,7.60
2023-03-17T02:41:16.919Z,7.40
2023-03-17T02:41:59.513Z,7.60
2023-03-17T02:42:42.149Z,7.50
2023-03-17T02:43:23.985Z,10.40
2023-03-17T02:44:05.950Z,7.50
2023-03-17T02:44:50.590Z,7.30
2023-03-17T02:45:32.376Z,7.30
2023-03-17T02:46:14.331Z,7.60
2023-03-17T02:46:56.654Z,7.40
2023-03-17T02:47:38.891Z,7.50
2023-03-17T02:48:22.789Z,7.20
2023-03-17T02:49:05.888Z,7.80
2023-03-17T02:49:48.264Z,7.10
2023-03-17T02:50:32.486Z,7.80
2023-03-17T02:51:14.587Z,7.10
2023-03-17T02:51:57.199Z,7.20
2023-03-17T02:52:39.007Z,7.80
2023-03-17T02:53:20.848Z,7.00
2023-03-17T02:54:02.626Z,6.90
2023-03-17T02:54:44.648Z,7.20
2023-03-17T02:55:27.174Z,7.40
2023-03-17T02:56:09.976Z,6.90
2023-03-17T02:56:51.852Z,6.90
2023-03-17T02:57:35.735Z,7.20
2023-03-17T02:58:17.703Z,6.90
2023-03-17T02:58:59.589Z,7.80
2023-03-17T02:59:41.660Z,7.20
2023-03-17T03:00:24.166Z,7.30
2023-03-17T03:01:06.023Z,6.90
2023-03-17T03:01:48.608Z,6.90
2023-03-17T03:02:30.450Z,8.20
2023-03-17T03:03:12.217Z,7.40
2023-03-17T03:03:53.964Z,6.80
2023-03-17T03:04:36.023Z,7.70
2023-03-17T03:05:18.480Z,7.90
2023-03-17T03:06:03.000Z,6.90
2023-03-17T03:06:45.709Z,7.00
2023-03-17T03:07:27.493Z,7.10
2023-03-17T03:08:09.570Z,7.50
2023-03-17T03:08:51.778Z,7.30
2023-03-17T03:09:33.567Z,7.90
2023-03-17T03:10:15.781Z,7.00
2023-03-17T03:10:57.553Z,7.20
2023-03-17T03:11:39.882Z,8.40
2023-03-17T03:12:21.835Z,7.30
2023-03-17T03:13:03.558Z,7.20
2023-03-17T03:13:46.520Z,7.40
2023-03-17T03:14:28.253Z,7.10
2023-03-17T03:15:10.593Z,7.10
2023-03-17T03:15:52.468Z,7.20
2023-03-17T03:16:34.602Z,7.60
2023-03-17T03:17:16.500Z,7.40
2023-03-17T03:17:58.290Z,7.40
2023-03-17T03:18:40.256Z,7.30
2023-03-17T03:19:22.715Z,7.10
2023-03-17T03:20:05.398Z,7.00
2023-03-17T03:20:49.956Z,6.80
2023-03-17T03:21:32.226Z,7.00
2023-03-17T03:22:14.137Z,7.10
2023-03-17T03:22:56.236Z,6.90
2023-03-17T03:23:38.044Z,6.80
2023-03-17T03:24:22.290Z,7.20
2023-03-17T03:25:04.515Z,6.90
2023-03-17T03:25:46.777Z,7.00
2023-03-17T03:26:28.539Z,7.20
2023-03-17T03:27:10.960Z,6.80
2023-03-17T03:27:52.895Z,7.30
2023-03-17T03:28:34.826Z,7.00
2023-03-17T03:29:16.913Z,7.30
2023-03-17T03:29:58.909Z,7.20
2023-03-17T03:30:41.767Z,7.70
2023-03-17T03:31:23.555Z,7.30
2023-03-17T03:32:05.976Z,7.10
2023-03-17T03:32:48.427Z,6.80
2023-03-17T03:33:32.923Z,6.90
2023-03-17T03:34:15.451Z,8.20
2023-03-17T03:34:59.993Z,6.80
2023-03-17T03:35:42.032Z,6.90
2023-03-17T03:36:23.908Z,7.20
2023-03-17T03:37:06.032Z,7.00
2023-03-17T03:37:47.859Z,7.30
2023-03-17T03:38:32.125Z,7.10
2023-03-17T03:39:14.537Z,7.50
2023-03-17T03:39:56.851Z,7.20
2023-03-17T03:40:38.990Z,7.00
2023-03-17T03:41:21.341Z,7.00
2023-03-17T03:42:04.078Z,7.20
2023-03-17T03:43:28.627Z,7.00
2023-03-17T03:44:13.060Z,7.20
2023-03-17T03:44:57.306Z,6.90
2023-03-17T03:45:39.474Z,7.20
2023-03-17T03:46:21.634Z,7.20
2023-03-17T03:47:03.536Z,7.10
2023-03-17T03:47:45.357Z,7.20
2023-03-17T03:48:27.349Z,6.70
2023-03-17T03:49:09.082Z,6.80
2023-03-17T03:49:51.290Z,6.90
2023-03-17T03:50:33.626Z,7.00
2023-03-17T03:51:15.607Z,7.00
2023-03-17T03:51:57.538Z,7.10
2023-03-17T03:52:39.383Z,6.80
2023-03-17T03:53:21.548Z,7.10
2023-03-17T03:54:03.555Z,6.70
2023-03-17T03:54:45.420Z,6.90
2023-03-17T03:55:27.305Z,6.90
2023-03-17T03:56:09.342Z,6.80
2023-03-17T03:56:51.112Z,6.70
2023-03-17T03:57:33.004Z,10.10
2023-03-17T03:58:17.020Z,6.70
2023-03-17T03:58:59.012Z,6.80
2023-03-17T03:59:43.124Z,7.20
2023-03-17T04:00:27.404Z,6.80
2023-03-17T04:01:12.548Z,7.00
2023-03-17T04:01:54.601Z,6.70
2023-03-17T04:02:37.108Z,6.80
2023-03-17T04:03:19.092Z,7.00
2023-03-17T04:04:01.285Z,6.80
2023-03-17T04:04:44.052Z,6.80
2023-03-17T04:05:26.244Z,6.80
2023-03-17T04:06:08.065Z,6.60
2023-03-17T04:06:51.980Z,7.10
2023-03-17T04:07:33.736Z,7.00
2023-03-17T04:08:15.546Z,7.10
2023-03-17T04:08:58.422Z,6.90
2023-03-17T04:09:40.411Z,7.30
2023-03-17T04:10:23.235Z,7.00
2023-03-17T04:11:05.235Z,7.00
2023-03-17T04:11:47.070Z,7.00
2023-03-17T04:12:28.870Z,7.00
2023-03-17T04:13:10.722Z,6.90
2023-03-17T04:13:52.621Z,7.00
2023-03-17T04:14:37.011Z,6.80
2023-03-17T04:15:21.370Z,7.20
2023-03-17T04:16:03.470Z,7.10
2023-03-17T04:16:45.814Z,7.30
2023-03-17T04:17:27.691Z,7.20
2023-03-17T04:18:09.750Z,7.10
2023-03-17T04:18:51.894Z,7.10
2023-03-17T04:19:33.809Z,7.30
2023-03-17T04:20:17.011Z,7.10
2023-03-17T04:20:58.832Z,6.90
2023-03-17T04:21:41.112Z,7.30
2023-03-17T04:22:25.292Z,7.20
2023-03-17T04:23:07.944Z,6.90
2023-03-17T04:23:52.373Z,7.10
2023-03-17T04:24:37.025Z,6.80
2023-03-17T04:25:18.835Z,7.20
2023-03-17T04:26:00.906Z,7.10
2023-03-17T04:26:42.767Z,7.10
2023-03-17T04:27:24.765Z,6.90
2023-03-17T04:28:06.576Z,7.50
2023-03-17T04:28:48.558Z,6.90
2023-03-17T04:29:31.381Z,6.60
2023-03-17T04:30:14.635Z,7.00
2023-03-17T04:30:56.816Z,7.10
2023-03-17T04:31:39.894Z,6.90
2023-03-17T04:32:27.000Z,7.00
2023-03-17T04:33:09.006Z,7.40
2023-03-17T04:33:50.846Z,6.90
2023-03-17T04:34:32.714Z,6.70
2023-03-17T04:35:17.269Z,7.50
2023-03-17T04:35:59.094Z,7.10
2023-03-17T04:36:42.414Z,7.10
2023-03-17T04:37:24.738Z,6.70
2023-03-17T04:38:06.861Z,6.70
2023-03-17T04:38:49.027Z,6.70
2023-03-17T04:39:30.963Z,6.90
2023-03-17T04:40:14.662Z,6.80
2023-03-17T04:40:56.610Z,7.10
2023-03-17T04:41:38.848Z,7.00
2023-03-17T04:42:20.751Z,6.60
2023-03-17T04:43:03.628Z,7.30
2023-03-17T04:43:46.328Z,6.60
2023-03-17T04:44:30.487Z,6.90
2023-03-17T04:45:15.553Z,6.60
2023-03-17T04:45:58.004Z,6.70
2023-03-17T04:46:40.096Z,7.10
2023-03-17T04:47:22.330Z,6.90
2023-03-17T04:48:04.809Z,7.10
2023-03-17T04:48:46.883Z,6.70
2023-03-17T04:49:28.923Z,7.00
2023-03-17T04:50:11.724Z,6.70
2023-03-17T04:50:53.533Z,7.10
2023-03-17T04:51:36.860Z,6.80
2023-03-17T04:52:18.654Z,6.70
2023-03-17T04:53:02.746Z,7.00
2023-03-17T04:53:44.835Z,7.00
2023-03-17T04:54:26.867Z,6.80
2023-03-17T04:55:09.607Z,6.80
2023-03-17T04:55:51.964Z,9.30
2023-03-17T04:56:33.877Z,6.90
2023-03-17T04:57:15.753Z,6.70
2023-03-17T04:57:57.517Z,7.10
2023-03-17T04:58:39.585Z,7.10
2023-03-17T04:59:21.861Z,7.20
2023-03-17T05:00:05.974Z,7.10
2023-03-17T05:00:47.905Z,6.70
2023-03-17T05:01:30.096Z,7.00
2023-03-17T05:02:12.438Z,7.10
2023-03-17T05:02:54.239Z,6.70
2023-03-17T05:03:38.831Z,6.90
2023-03-17T05:04:31.265Z,7.20
2023-03-17T05:05:14.082Z,6.70
2023-03-17T05:06:00.165Z,7.10
2023-03-17T05:06:42.472Z,6.80
2023-03-17T05:07:24.613Z,6.90
2023-03-17T05:08:06.726Z,6.90
2023-03-17T05:08:48.593Z,7.10
2023-03-17T05:09:32.827Z,7.10
2023-03-17T05:10:14.701Z,6.80
2023-03-17T05:10:57.430Z,6.80
2023-03-17T05:11:43.964Z,6.80
2023-03-17T05:12:26.091Z,6.80
2023-03-17T05:13:08.132Z,7.00
2023-03-17T05:13:50.208Z,7.00
2023-03-17T05:14:34.338Z,7.00
2023-03-17T05:15:16.747Z,7.00
2023-03-17T05:16:00.823Z,7.00
2023-03-17T05:16:42.601Z,6.80
2023-03-17T05:17:24.825Z,6.50
2023-03-17T05:18:06.773Z,6.60
2023-03-17T05:18:48.664Z,6.60
2023-03-17T05:19:30.723Z,6.90
2023-03-17T05:20:13.136Z,6.90
2023-03-17T05:20:55.183Z,6.80
2023-03-17T05:21:39.646Z,6.80
2023-03-17T05:22:21.766Z,7.00
2023-03-17T05:23:03.595Z,6.60
2023-03-17T05:23:47.503Z,8.00
2023-03-17T05:24:29.514Z,7.00
2023-03-17T05:25:13.957Z,6.80
2023-03-17T05:25:56.088Z,6.70
2023-03-17T05:26:37.959Z,6.60
2023-03-17T05:27:20.166Z,7.00
2023-03-17T05:28:04.636Z,6.70
2023-03-17T05:28:50.823Z,7.10
2023-03-17T05:29:32.687Z,7.00
2023-03-17T05:30:14.910Z,7.10
2023-03-17T05:30:57.765Z,6.70
2023-03-17T05:31:39.685Z,6.80
2023-03-17T05:32:21.841Z,6.90
2023-03-17T05:33:04.290Z,6.80
2023-03-17T05:33:46.645Z,6.70
2023-03-17T05:34:28.594Z,6.80
2023-03-17T05:35:10.486Z,6.70
2023-03-17T05:35:53.619Z,6.60
2023-03-17T05:36:36.826Z,6.80
2023-03-17T05:37:18.794Z,6.70
2023-03-17T05:38:01.077Z,6.60
2023-03-17T05:38:43.287Z,6.70
2023-03-17T05:39:25.070Z,7.10
2023-03-17T05:40:08.386Z,6.70
2023-03-17T05:40:52.680Z,6.70
2023-03-17T05:41:36.884Z,6.60
2023-03-17T05:42:18.790Z,6.70
2023-03-17T05:43:01.778Z,6.80
2023-03-17T05:43:43.700Z,6.80
2023-03-17T05:44:25.822Z,6.70
2023-03-17T05:45:08.430Z,7.00
2023-03-17T05:45:50.876Z,6.90
2023-03-17T05:46:32.760Z,7.00
2023-03-17T05:47:16.814Z,7.40
2023-03-17T05:47:58.834Z,7.20
2023-03-17T05:48:41.934Z,7.30
2023-03-17T05:49:26.879Z,6.90
2023-03-17T05:50:10.155Z,7.60
2023-03-17T05:50:52.174Z,7.20
2023-03-17T05:51:36.775Z,6.90
2023-03-17T05:52:19.385Z,7.10
2023-03-17T05:53:01.750Z,6.90
2023-03-17T05:53:43.879Z,6.80
2023-03-17T05:54:26.056Z,7.00
2023-03-17T05:55:08.402Z,6.90
2023-03-17T05:55:50.219Z,6.90
2023-03-17T05:56:33.877Z,7.10
2023-03-17T05:57:18.604Z,7.10
2023-03-17T05:58:00.962Z,7.10
2023-03-17T05:58:42.788Z,6.70
2023-03-17T05:59:25.208Z,7.00
2023-03-17T06:00:08.301Z,7.00
2023-03-17T06:00:50.306Z,7.20
2023-03-17T06:01:32.468Z,7.00
2023-03-17T06:02:16.025Z,6.90
2023-03-17T06:02:58.000Z,7.00
2023-03-17T06:03:42.228Z,7.10
2023-03-17T06:04:24.287Z,7.20
2023-03-17T06:05:08.487Z,7.10
2023-03-17T06:05:50.332Z,7.00
2023-03-17T06:06:32.349Z,6.90
2023-03-17T06:07:14.415Z,7.50
2023-03-17T06:07:56.802Z,7.10
2023-03-17T06:08:38.797Z,6.90
2023-03-17T06:09:20.908Z,6.90
2023-03-17T06:10:03.933Z,7.00
2023-03-17T06:10:46.511Z,6.90
2023-03-17T06:11:28.376Z,6.90
2023-03-17T06:12:10.460Z,7.00
2023-03-17T06:12:52.543Z,7.20
2023-03-17T06:13:34.455Z,7.20
2023-03-17T06:14:16.882Z,7.20
2023-03-17T06:14:58.935Z,7.20
2023-03-17T06:15:42.510Z,6.80
2023-03-17T06:16:24.503Z,7.00
2023-03-17T06:17:06.749Z,7.00
2023-03-17T06:17:48.618Z,6.70
2023-03-17T06:18:30.956Z,7.40
2023-03-17T06:19:12.877Z,7.00
2023-03-17T06:19:55.394Z,7.00
2023-03-17T06:20:37.512Z,7.40
2023-03-17T06:21:19.567Z,6.80
2023-03-17T06:22:01.968Z,7.30
2023-03-17T06:23:02.309Z,7.10
2023-03-17T06:23:45.632Z,7.40
2023-03-17T06:24:27.535Z,7.40
2023-03-17T06:25:13.260Z,7.20
2023-03-17T06:25:55.180Z,7.40
2023-03-17T06:26:40.472Z,7.50
2023-03-17T06:27:22.385Z,7.20
2023-03-17T06:28:05.738Z,7.50
2023-03-17T06:28:50.428Z,7.50
2023-03-17T06:29:32.510Z,7.40
2023-03-17T06:30:17.109Z,7.10
2023-03-17T06:30:59.133Z,7.10
2023-03-17T06:31:42.187Z,7.50
2023-03-17T06:32:24.069Z,7.10
2023-03-17T06:33:06.934Z,7.10
2023-03-17T06:33:49.030Z,7.20
2023-03-17T06:34:31.384Z,7.40
2023-03-17T06:35:13.868Z,7.60
2023-03-17T06:35:56.225Z,7.30
2023-03-17T06:36:39.188Z,7.60
2023-03-17T06:37:21.671Z,7.40
2023-03-17T06:38:03.895Z,7.60
2023-03-17T06:38:46.226Z,7.30
2023-03-17T06:39:28.104Z,7.40
2023-03-17T06:40:11.323Z,7.40
2023-03-17T06:40:53.153Z,7.80
2023-03-17T06:41:35.108Z,7.70
2023-03-17T06:42:17.139Z,7.40
2023-03-17T06:42:59.479Z,7.40
2023-03-17T06:43:41.981Z,7.30
2023-03-17T06:44:23.759Z,7.70
2023-03-17T06:45:06.440Z,7.80
2023-03-17T06:45:48.365Z,7.50
2023-03-17T06:46:30.487Z,7.70
2023-03-17T06:47:12.503Z,7.60
2023-03-17T06:47:54.506Z,7.70
2023-03-17T06:48:36.433Z,7.90
2023-03-17T06:49:18.361Z,7.70
2023-03-17T06:50:00.172Z,7.50
2023-03-17T06:50:42.213Z,7.60
2023-03-17T06:51:24.186Z,8.20
2023-03-17T06:52:06.515Z,7.60
2023-03-17T06:52:48.723Z,7.50
2023-03-17T06:53:30.566Z,7.60
2023-03-17T06:54:12.625Z,7.60
2023-03-17T06:54:54.543Z,7.70
2023-03-17T06:55:36.371Z,7.50
2023-03-17T06:56:29.595Z,8.60
2023-03-17T06:57:12.456Z,7.70
2023-03-17T06:57:54.340Z,8.10
2023-03-17T06:58:36.348Z,7.60
2023-03-17T06:59:19.209Z,7.80
2023-03-17T07:00:01.247Z,7.90
2023-03-17T07:00:45.469Z,7.90
2023-03-17T07:01:27.492Z,7.70
2023-03-17T07:02:11.779Z,7.60
2023-03-17T07:02:53.770Z,8.20
2023-03-17T07:03:38.633Z,7.70
2023-03-17T07:04:21.236Z,7.70
2023-03-17T07:05:04.613Z,7.70
2023-03-17T07:05:47.130Z,7.90
2023-03-17T07:06:29.375Z,7.40
2023-03-17T07:07:11.340Z,8.10
2023-03-17T07:07:53.163Z,8.00
2023-03-17T07:08:36.515Z,7.70
2023-03-17T07:09:18.341Z,7.80
2023-03-17T07:10:00.179Z,7.70
2023-03-17T07:10:43.810Z,7.70
2023-03-17T07:11:26.285Z,8.20
2023-03-17T07:12:08.555Z,8.10
2023-03-17T07:12:50.365Z,7.90
2023-03-17T07:13:35.533Z,7.90
2023-03-17T07:14:17.326Z,8.00
2023-03-17T07:14:59.464Z,8.40
2023-03-17T07:15:41.888Z,8.00
2023-03-17T07:16:23.816Z,8.00
2023-03-17T07:17:06.782Z,8.10
2023-03-17T07:17:48.815Z,8.30
2023-03-17T07:18:32.159Z,8.10
2023-03-17T07:19:14.244Z,7.60
2023-03-17T07:19:56.615Z,7.90
2023-03-17T07:20:38.452Z,8.40
2023-03-17T07:21:20.551Z,11.20
2023-03-17T07:22:02.368Z,8.50
2023-03-17T07:22:44.360Z,8.10
2023-03-17T07:23:26.303Z,8.00
2023-03-17T07:24:10.611Z,8.50
2023-03-17T07:24:52.586Z,8.50
2023-03-17T07:25:36.876Z,8.50
2023-03-17T07:26:18.774Z,8.30
2023-03-17T07:27:00.692Z,8.60
2023-03-17T07:27:42.765Z,8.50
2023-03-17T07:28:24.831Z,8.40
2023-03-17T07:29:08.294Z,8.40
2023-03-17T07:29:52.437Z,8.70
2023-03-17T07:30:34.609Z,9.00
2023-03-17T07:31:16.520Z,8.60
2023-03-17T07:31:58.608Z,8.70
2023-03-17T07:32:40.458Z,8.70
2023-03-17T07:33:22.456Z,8.50
2023-03-17T07:34:06.626Z,8.70
2023-03-17T07:34:48.566Z,9.30
2023-03-17T07:35:31.936Z,8.70
2023-03-17T07:36:15.863Z,8.90
2023-03-17T07:36:57.954Z,8.70
2023-03-17T07:37:39.985Z,8.60
2023-03-17T07:38:22.270Z,8.90
2023-03-17T07:39:04.389Z,9.00
2023-03-17T07:39:47.336Z,8.40
2023-03-17T07:40:29.825Z,8.90
2023-03-17T07:41:12.032Z,8.90
2023-03-17T07:41:57.559Z,8.80
2023-03-17T07:42:39.467Z,9.00
2023-03-17T07:43:21.742Z,9.10
2023-03-17T07:44:04.107Z,8.80
2023-03-17T07:44:45.971Z,8.90
2023-03-17T07:45:28.515Z,8.90
2023-03-17T07:46:10.567Z,9.30
2023-03-17T07:46:52.418Z,9.00
2023-03-17T07:47:34.297Z,9.10
2023-03-17T07:48:16.398Z,8.90
2023-03-17T07:48:58.406Z,6.10
2023-03-17T07:49:42.205Z,9.30
2023-03-17T07:50:24.199Z,9.00
2023-03-17T07:51:06.386Z,9.30
2023-03-17T07:51:48.408Z,9.30
2023-03-17T07:52:30.665Z,9.10
2023-03-17T07:53:12.950Z,9.50
2023-03-17T07:54:05.356Z,10.70
2023-03-17T07:54:47.152Z,9.30
2023-03-17T07:55:30.061Z,9.60
2023-03-17T07:56:12.912Z,9.80
2023-03-17T07:56:57.469Z,9.40
2023-03-17T07:57:40.398Z,9.40
2023-03-17T07:58:22.819Z,9.60
2023-03-17T07:59:06.734Z,9.60
2023-03-17T07:59:49.067Z,9.70
2023-03-17T08:00:31.289Z,9.70
2023-03-17T08:01:15.958Z,9.60
2023-03-17T08:01:59.660Z,10.10
2023-03-17T08:02:41.611Z,9.70
2023-03-17T08:03:23.678Z,9.60
2023-03-17T08:04:05.991Z,9.80
2023-03-17T08:04:48.203Z,9.90
2023-03-17T08:05:31.019Z,10.00
2023-03-17T08:06:12.972Z,9.80
2023-03-17T08:06:54.972Z,9.90
2023-03-17T08:07:40.581Z,9.60
2023-03-17T08:08:23.597Z,9.50
2023-03-17T08:09:07.540Z,9.60
2023-03-17T08:09:49.626Z,9.50
2023-03-17T08:10:32.012Z,9.60
2023-03-17T08:11:14.338Z,9.70
2023-03-17T08:11:56.404Z,10.10
2023-03-17T08:12:38.649Z,9.60
2023-03-17T08:13:20.541Z,10.00
2023-03-17T08:14:02.863Z,9.80
2023-03-17T08:14:44.786Z,10.10
2023-03-17T08:15:26.669Z,9.60
2023-03-17T08:16:08.584Z,9.80
2023-03-17T08:16:52.779Z,9.70
2023-03-17T08:17:36.530Z,10.20
2023-03-17T08:18:18.796Z,10.20
2023-03-17T08:19:00.876Z,10.10
2023-03-17T08:19:43.086Z,10.10
2023-03-17T08:20:24.878Z,10.20
2023-03-17T08:21:06.777Z,10.20
2023-03-17T08:21:49.596Z,10.30
2023-03-17T08:22:31.793Z,10.00
2023-03-17T08:23:14.351Z,10.10
2023-03-17T08:23:58.562Z,10.50
2023-03-17T08:24:43.011Z,10.30
2023-03-17T08:25:25.118Z,10.10
2023-03-17T08:26:08.043Z,10.60
2023-03-17T08:26:50.225Z,10.70
2023-03-17T08:27:33.888Z,10.80
2023-03-17T08:28:16.634Z,10.40
2023-03-17T08:28:58.608Z,10.50
2023-03-17T08:29:42.477Z,10.40
2023-03-17T08:30:24.348Z,10.80
2023-03-17T08:31:13.513Z,10.40
2023-03-17T08:31:56.035Z,10.90
2023-03-17T08:32:38.115Z,10.60
2023-03-17T08:33:20.762Z,10.70
2023-03-17T08:34:04.470Z,10.80
2023-03-17T08:34:48.013Z,11.20
2023-03-17T08:35:33.285Z,10.80
2023-03-17T08:36:16.843Z,11.10
2023-03-17T08:36:59.733Z,11.10
2023-03-17T08:37:45.364Z,11.20
2023-03-17T08:38:28.408Z,11.30
2023-03-17T08:39:12.645Z,11.40
2023-03-17T08:39:54.448Z,11.10
2023-03-17T08:40:37.090Z,11.60
2023-03-17T08:41:22.812Z,11.60
2023-03-17T08:42:04.944Z,11.10
2023-03-17T08:42:48.842Z,11.60
2023-03-17T08:43:30.842Z,11.60
2023-03-17T08:44:14.692Z,11.50
2023-03-17T08:44:58.617Z,11.60
2023-03-17T08:45:42.818Z,11.20
2023-03-17T08:46:29.888Z,11.40
2023-03-17T08:47:12.134Z,11.30
2023-03-17T08:47:54.208Z,11.50
2023-03-17T08:48:44.497Z,11.40
2023-03-17T08:49:27.294Z,11.60
2023-03-17T08:50:18.143Z,11.80
2023-03-17T08:51:00.039Z,11.40
2023-03-17T08:51:42.202Z,11.70
2023-03-17T08:52:24.191Z,11.80
2023-03-17T08:53:06.011Z,11.50
2023-03-17T08:53:47.808Z,11.70
2023-03-17T08:54:29.651Z,11.80
2023-03-17T08:55:13.134Z,11.80
2023-03-17T08:55:56.958Z,11.80
2023-03-17T08:56:40.454Z,11.50
2023-03-17T08:57:22.820Z,11.80
2023-03-17T08:58:05.423Z,11.90
2023-03-17T08:58:48.582Z,11.80
2023-03-17T08:59:30.432Z,11.50
2023-03-17T09:00:20.374Z,11.40
2023-03-17T09:01:04.483Z,11.20
2023-03-17T09:01:47.180Z,11.50
2023-03-17T09:02:29.619Z,11.50
2023-03-17T09:03:11.492Z,11.70
2023-03-17T09:03:54.870Z,11.60
2023-03-17T09:04:39.981Z,11.50
2023-03-17T09:05:22.177Z,11.60
2023-03-17T09:06:06.814Z,11.70
2023-03-17T09:07:02.213Z,11.40
2023-03-17T09:07:44.617Z,11.30
2023-03-17T09:08:30.013Z,11.20
2023-03-17T09:09:15.092Z,12.10
2023-03-17T09:09:57.180Z,11.60
2023-03-17T09:10:39.400Z,11.70
2023-03-17T09:11:27.530Z,11.80
2023-03-17T09:12:10.105Z,11.80
2023-03-17T09:12:53.325Z,11.60
2023-03-17T09:13:37.948Z,11.60
2023-03-17T09:14:20.045Z,11.80
2023-03-17T09:15:02.133Z,11.90
2023-03-17T09:15:44.783Z,11.50
2023-03-17T09:16:27.992Z,11.80
2023-03-17T09:17:10.150Z,12.00
2023-03-17T09:17:52.201Z,11.90
2023-03-17T09:18:34.751Z,11.80
2023-03-17T09:19:17.943Z,11.70
2023-03-17T09:19:59.734Z,12.00
2023-03-17T09:20:41.625Z,12.00
2023-03-17T09:21:23.893Z,12.00
2023-03-17T09:22:08.239Z,11.80
2023-03-17T09:22:53.333Z,11.70
2023-03-17T09:23:35.235Z,11.80
2023-03-17T09:24:18.205Z,12.10
2023-03-17T09:25:00.645Z,11.80
2023-03-17T09:25:42.910Z,12.10
2023-03-17T09:26:26.338Z,11.80
2023-03-17T09:27:08.350Z,11.80
2023-03-17T09:27:50.441Z,12.00
2023-03-17T09:28:32.940Z,12.20
2023-03-17T09:29:15.388Z,9.30
2023-03-17T09:29:58.014Z,12.20
2023-03-17T09:30:42.926Z,12.00
2023-03-17T09:31:25.009Z,12.30
2023-03-17T09:32:08.757Z,12.20
2023-03-17T09:32:50.609Z,12.20
2023-03-17T09:33:35.066Z,12.00